Terminal Aerodrome Forecast
Issued by NWS

Home | Current Version | Previous Version | Text Only | Print | Product List | Glossary On
Versions: 1 2 3 4 5 6 7 8 9 10 11 12 13 14 15 16 17 18 19 20 21
000
FTUS46 KPQR 190520
TAFONP
TAF
KONP 190520Z 1906/2006 36003KT P6SM SCT003 OVC007
     FM191700 36006KT P6SM SCT007
     FM192100 35018G25KT P6SM SKC
     FM200400 34012KT P6SM SKC=

USA.gov is the U.S. government's official web portal to all federal, state and local government web resources and services.